Terminal Aerodrome Forecast
Issued by NWS

Home | Current Version | Previous Version | Text Only | Print | Product List | Glossary On
Versions: 1 2 3 4 5 6 7 8 9 10 11 12 13 14 15 16 17 18 19 20 21 22 23 24 25 26 27 28 29 30 31 32 33 34 35
669
FTUS42 KCAE 251126
TAFCUB
TAF
KCUB 251126Z 2512/2612 31007KT P6SM OVC009
      TEMPO 2512/2514 6SM -DZ
     FM251400 31008G15KT P6SM OVC012
     FM251700 30008G15KT P6SM BKN025
     FM252000 30006KT P6SM BKN035
     FM260000 VRB03KT P6SM SCT040
      TEMPO 2609/2612 4SM BR SKC=

USA.gov is the U.S. government's official web portal to all federal, state and local government web resources and services.